sensor_id;sensor_type;location;lat;lon;timestamp;pressure;altitude;pressure_sealevel;temperature;humidity
10618;BME280;5356;43.526;26.534;2023-11-21T00:02:14;98878.91;;;5.93;100.00
10618;BME280;5356;43.526;26.534;2023-11-21T00:04:39;98878.81;;;5.73;100.00
10618;BME280;5356;43.526;26.534;2023-11-21T00:07:05;98887.38;;;5.75;100.00
10618;BME280;5356;43.526;26.534;2023-11-21T00:09:31;98878.03;;;5.72;100.00
10618;BME280;5356;43.526;26.534;2023-11-21T00:11:57;98874.94;;;5.69;100.00
10618;BME280;5356;43.526;26.534;2023-11-21T00:14:24;98871.84;;;5.58;100.00
10618;BME280;5356;43.526;26.534;2023-11-21T00:16:50;98876.25;;;5.51;100.00
10618;BME280;5356;43.526;26.534;2023-11-21T00:19:15;98877.03;;;5.45;100.00
10618;BME280;5356;43.526;26.534;2023-11-21T00:21:42;98860.81;;;5.48;100.00
10618;BME280;5356;43.526;26.534;2023-11-21T00:24:11;98866.97;;;5.55;100.00
10618;BME280;5356;43.526;26.534;2023-11-21T00:26:39;98863.28;;;5.56;100.00
10618;BME280;5356;43.526;26.534;2023-11-21T00:29:05;98858.22;;;5.55;100.00
10618;BME280;5356;43.526;26.534;2023-11-21T00:31:34;98854.75;;;5.54;100.00
10618;BME280;5356;43.526;26.534;2023-11-21T00:34:02;98862.06;;;5.52;100.00
10618;BME280;5356;43.526;26.534;2023-11-21T00:36:31;98863.31;;;5.63;100.00
10618;BME280;5356;43.526;26.534;2023-11-21T00:38:57;98862.09;;;5.66;100.00
10618;BME280;5356;43.526;26.534;2023-11-21T00:41:23;98869.03;;;5.67;100.00
10618;BME280;5356;43.526;26.534;2023-11-21T00:43:48;98873.47;;;5.59;100.00
10618;BME280;5356;43.526;26.534;2023-11-21T00:46:14;98876.31;;;5.58;100.00
10618;BME280;5356;43.526;26.534;2023-11-21T00:48:39;98867.38;;;5.59;100.00
10618;BME280;5356;43.526;26.534;2023-11-21T00:51:06;98867.56;;;5.57;100.00
10618;BME280;5356;43.526;26.534;2023-11-21T00:53:32;98870.66;;;5.61;100.00
10618;BME280;5356;43.526;26.534;2023-11-21T00:55:57;98872.09;;;5.63;100.00
10618;BME280;5356;43.526;26.534;2023-11-21T00:58:26;98875.13;;;5.60;100.00
10618;BME280;5356;43.526;26.534;2023-11-21T01:00:52;98862.47;;;5.56;100.00
10618;BME280;5356;43.526;26.534;2023-11-21T01:03:18;98866.97;;;5.55;100.00
10618;BME280;5356;43.526;26.534;2023-11-21T01:05:43;98869.78;;;5.54;100.00
10618;BME280;5356;43.526;26.534;2023-11-21T01:08:09;98871.59;;;5.47;100.00
10618;BME280;5356;43.526;26.534;2023-11-21T01:10:35;98866.91;;;5.49;100.00
10618;BME280;5356;43.526;26.534;2023-11-21T01:13:02;98863.22;;;5.43;100.00
10618;BME280;5356;43.526;26.534;2023-11-21T01:15:31;98863.59;;;5.40;100.00
10618;BME280;5356;43.526;26.534;2023-11-21T01:17:56;98858.13;;;5.42;100.00
10618;BME280;5356;43.526;26.534;2023-11-21T01:20:22;98862.00;;;5.46;100.00
10618;BME280;5356;43.526;26.534;2023-11-21T01:22:47;98868.09;;;5.46;100.00
10618;BME280;5356;43.526;26.534;2023-11-21T01:25:14;98860.38;;;5.45;100.00
10618;BME280;5356;43.526;26.534;2023-11-21T01:27:41;98855.25;;;5.36;100.00
10618;BME280;5356;43.526;26.534;2023-11-21T01:30:07;98865.56;;;5.31;100.00
10618;BME280;5356;43.526;26.534;2023-11-21T01:32:33;98856.22;;;5.29;100.00
10618;BME280;5356;43.526;26.534;2023-11-21T01:34:59;98846.09;;;5.32;100.00
10618;BME280;5356;43.526;26.534;2023-11-21T01:37:25;98844.44;;;5.31;100.00
10618;BME280;5356;43.526;26.534;2023-11-21T01:39:55;98840.34;;;5.22;100.00
10618;BME280;5356;43.526;26.534;2023-11-21T01:42:21;98845.44;;;5.24;100.00
10618;BME280;5356;43.526;26.534;2023-11-21T01:44:46;98844.81;;;5.22;100.00
10618;BME280;5356;43.526;26.534;2023-11-21T01:47:13;98844.81;;;5.22;100.00
10618;BME280;5356;43.526;26.534;2023-11-21T01:49:38;98842.97;;;5.22;100.00
10618;BME280;5356;43.526;26.534;2023-11-21T01:52:05;98842.97;;;5.22;100.00
10618;BME280;5356;43.526;26.534;2023-11-21T01:54:32;98831.53;;;5.15;100.00
10618;BME280;5356;43.526;26.534;2023-11-21T01:57:01;98844.91;;;5.07;100.00
10618;BME280;5356;43.526;26.534;2023-11-21T01:59:34;98836.22;;;5.13;100.00
10618;BME280;5356;43.526;26.534;2023-11-21T02:02:00;98842.50;;;5.12;100.00
10618;BME280;5356;43.526;26.534;2023-11-21T02:04:25;98843.09;;;5.07;100.00
10618;BME280;5356;43.526;26.534;2023-11-21T02:06:51;98845.09;;;5.05;100.00
10618;BME280;5356;43.526;26.534;2023-11-21T02:09:17;98849.59;;;5.11;100.00
10618;BME280;5356;43.526;26.534;2023-11-21T02:11:43;98849.22;;;5.14;100.00
10618;BME280;5356;43.526;26.534;2023-11-21T02:14:09;98847.22;;;5.16;100.00
10618;BME280;5356;43.526;26.534;2023-11-21T02:16:35;98847.22;;;5.16;100.00
10618;BME280;5356;43.526;26.534;2023-11-21T02:19:02;98856.56;;;5.19;100.00
10618;BME280;5356;43.526;26.534;2023-11-21T02:21:29;98849.06;;;5.23;100.00
10618;BME280;5356;43.526;26.534;2023-11-21T02:23:55;98854.75;;;5.20;100.00
10618;BME280;5356;43.526;26.534;2023-11-21T02:26:21;98858.78;;;5.15;100.00
10618;BME280;5356;43.526;26.534;2023-11-21T02:28:46;98856.53;;;5.12;100.00
10618;BME280;5356;43.526;26.534;2023-11-21T02:31:13;98852.00;;;5.06;100.00
10618;BME280;5356;43.526;26.534;2023-11-21T02:33:38;98857.34;;;5.13;100.00
10618;BME280;5356;43.526;26.534;2023-11-21T02:36:04;98856.31;;;5.14;100.00
10618;BME280;5356;43.526;26.534;2023-11-21T02:38:30;98845.53;;;5.09;100.00
10618;BME280;5356;43.526;26.534;2023-11-21T02:40:57;98853.66;;;5.07;100.00
10618;BME280;5356;43.526;26.534;2023-11-21T02:43:23;98858.00;;;4.93;100.00
10618;BME280;5356;43.526;26.534;2023-11-21T02:45:49;98852.34;;;4.97;100.00
10618;BME280;5356;43.526;26.534;2023-11-21T02:48:14;98858.44;;;4.97;100.00
10618;BME280;5356;43.526;26.534;2023-11-21T02:50:40;98856.03;;;5.02;100.00
10618;BME280;5356;43.526;26.534;2023-11-21T02:53:05;98859.69;;;5.01;100.00
10618;BME280;5356;43.526;26.534;2023-11-21T02:55:31;98861.97;;;5.04;100.00
10618;BME280;5356;43.526;26.534;2023-11-21T02:58:00;98862.94;;;5.03;100.00
10618;BME280;5356;43.526;26.534;2023-11-21T03:00:25;98860.44;;;4.95;100.00
10618;BME280;5356;43.526;26.534;2023-11-21T03:02:51;98850.91;;;4.72;100.00
10618;BME280;5356;43.526;26.534;2023-11-21T03:05:16;98856.53;;;4.63;100.00
10618;BME280;5356;43.526;26.534;2023-11-21T03:07:42;98859.34;;;4.61;100.00
10618;BME280;5356;43.526;26.534;2023-11-21T03:10:08;98851.69;;;4.66;100.00
10618;BME280;5356;43.526;26.534;2023-11-21T03:12:34;98854.16;;;4.68;100.00
10618;BME280;5356;43.526;26.534;2023-11-21T03:15:00;98856.66;;;4.76;100.00
10618;BME280;5356;43.526;26.534;2023-11-21T03:17:27;98859.44;;;4.68;100.00
10618;BME280;5356;43.526;26.534;2023-11-21T03:19:54;98859.59;;;4.66;100.00
10618;BME280;5356;43.526;26.534;2023-11-21T03:22:19;98856.19;;;4.72;100.00
10618;BME280;5356;43.526;26.534;2023-11-21T03:24:45;98863.69;;;4.69;100.00
10618;BME280;5356;43.526;26.534;2023-11-21T03:27:11;98857.72;;;4.60;100.00
10618;BME280;5356;43.526;26.534;2023-11-21T03:29:37;98860.63;;;4.65;100.00
10618;BME280;5356;43.526;26.534;2023-11-21T03:32:03;98853.75;;;4.71;100.00
10618;BME280;5356;43.526;26.534;2023-11-21T03:34:28;98856.03;;;4.53;100.00
10618;BME280;5356;43.526;26.534;2023-11-21T03:36:54;98864.78;;;4.53;100.00
10618;BME280;5356;43.526;26.534;2023-11-21T03:39:20;98855.84;;;4.54;100.00
10618;BME280;5356;43.526;26.534;2023-11-21T03:41:46;98851.63;;;4.60;100.00
10618;BME280;5356;43.526;26.534;2023-11-21T03:44:13;98855.63;;;4.56;100.00
10618;BME280;5356;43.526;26.534;2023-11-21T03:46:38;98850.44;;;4.62;100.00
10618;BME280;5356;43.526;26.534;2023-11-21T03:49:04;98855.72;;;4.62;100.00
10618;BME280;5356;43.526;26.534;2023-11-21T03:51:29;98861.38;;;4.59;100.00
10618;BME280;5356;43.526;26.534;2023-11-21T03:53:55;98863.56;;;4.56;100.00
10618;BME280;5356;43.526;26.534;2023-11-21T03:56:20;98856.84;;;4.53;100.00
10618;BME280;5356;43.526;26.534;2023-11-21T03:58:48;98851.81;;;4.58;100.00
10618;BME280;5356;43.526;26.534;2023-11-21T04:01:23;98856.47;;;4.56;100.00
10618;BME280;5356;43.526;26.534;2023-11-21T04:03:49;98864.00;;;4.59;100.00
10618;BME280;5356;43.526;26.534;2023-11-21T04:06:16;98863.13;;;4.52;100.00
10618;BME280;5356;43.526;26.534;2023-11-21T04:08:46;98868.00;;;4.55;100.00
10618;BME280;5356;43.526;26.534;2023-11-21T04:11:12;98866.81;;;4.58;100.00
10618;BME280;5356;43.526;26.534;2023-11-21T04:13:40;98869.78;;;4.48;100.00
10618;BME280;5356;43.526;26.534;2023-11-21T04:16:08;98868.00;;;4.55;100.00
10618;BME280;5356;43.526;26.534;2023-11-21T04:18:36;98869.78;;;4.48;100.00
10618;BME280;5356;43.526;26.534;2023-11-21T04:21:04;98869.78;;;4.48;100.00
10618;BME280;5356;43.526;26.534;2023-11-21T04:23:29;98873.03;;;4.50;100.00
10618;BME280;5356;43.526;26.534;2023-11-21T04:25:57;98869.84;;;4.55;100.00
10618;BME280;5356;43.526;26.534;2023-11-21T04:28:23;98871.78;;;4.46;100.00
10618;BME280;5356;43.526;26.534;2023-11-21T04:30:49;98868.50;;;4.44;100.00
10618;BME280;5356;43.526;26.534;2023-11-21T04:33:15;98878.47;;;4.42;100.00
10618;BME280;5356;43.526;26.534;2023-11-21T04:35:41;98870.53;;;4.42;100.00
10618;BME280;5356;43.526;26.534;2023-11-21T04:38:06;98866.13;;;4.49;100.00
10618;BME280;5356;43.526;26.534;2023-11-21T04:40:32;98869.41;;;4.51;100.00
10618;BME280;5356;43.526;26.534;2023-11-21T04:42:57;98863.94;;;4.53;100.00
10618;BME280;5356;43.526;26.534;2023-11-21T04:45:23;98867.75;;;4.50;100.00
10618;BME280;5356;43.526;26.534;2023-11-21T04:47:48;98860.88;;;4.49;100.00
10618;BME280;5356;43.526;26.534;2023-11-21T04:50:14;98860.97;;;4.41;100.00
10618;BME280;5356;43.526;26.534;2023-11-21T04:52:39;98869.28;;;4.38;100.00
10618;BME280;5356;43.526;26.534;2023-11-21T04:55:05;98876.63;;;4.42;100.00
10618;BME280;5356;43.526;26.534;2023-11-21T04:57:35;98878.25;;;4.43;100.00
10618;BME280;5356;43.526;26.534;2023-11-21T05:00:00;98875.88;;;4.48;100.00
10618;BME280;5356;43.526;26.534;2023-11-21T05:02:26;98883.97;;;4.47;100.00
10618;BME280;5356;43.526;26.534;2023-11-21T05:04:51;98887.63;;;4.46;100.00
10618;BME280;5356;43.526;26.534;2023-11-21T05:07:18;98880.34;;;4.48;100.00
10618;BME280;5356;43.526;26.534;2023-11-21T05:09:43;98888.50;;;4.53;100.00
10618;BME280;5356;43.526;26.534;2023-11-21T05:12:11;98881.97;;;4.49;100.00
10618;BME280;5356;43.526;26.534;2023-11-21T05:14:36;98900.16;;;4.44;100.00
10618;BME280;5356;43.526;26.534;2023-11-21T05:17:02;98899.34;;;4.43;100.00
10618;BME280;5356;43.526;26.534;2023-11-21T05:19:29;98909.63;;;4.53;100.00
10618;BME280;5356;43.526;26.534;2023-11-21T05:21:54;98905.06;;;4.47;100.00
10618;BME280;5356;43.526;26.534;2023-11-21T05:24:20;98905.63;;;4.42;100.00
10618;BME280;5356;43.526;26.534;2023-11-21T05:26:45;98914.00;;;4.46;100.00
10618;BME280;5356;43.526;26.534;2023-11-21T05:29:11;98912.38;;;4.45;100.00
10618;BME280;5356;43.526;26.534;2023-11-21T05:31:36;98916.44;;;4.47;100.00
10618;BME280;5356;43.526;26.534;2023-11-21T05:34:04;98918.50;;;4.52;100.00
10618;BME280;5356;43.526;26.534;2023-11-21T05:36:30;98904.34;;;4.53;100.00
10618;BME280;5356;43.526;26.534;2023-11-21T05:38:56;98907.69;;;4.47;100.00
10618;BME280;5356;43.526;26.534;2023-11-21T05:41:21;98910.84;;;4.57;100.00
10618;BME280;5356;43.526;26.534;2023-11-21T05:43:47;98899.06;;;4.53;100.00
10618;BME280;5356;43.526;26.534;2023-11-21T05:46:12;98904.44;;;4.66;100.00
10618;BME280;5356;43.526;26.534;2023-11-21T05:48:38;98905.34;;;4.73;100.00
10618;BME280;5356;43.526;26.534;2023-11-21T05:51:06;98914.25;;;4.72;100.00
10618;BME280;5356;43.526;26.534;2023-11-21T05:53:31;98917.59;;;4.81;100.00
10618;BME280;5356;43.526;26.534;2023-11-21T05:55:57;98919.09;;;4.90;100.00
10618;BME280;5356;43.526;26.534;2023-11-21T05:58:22;98923.78;;;4.95;100.00
10618;BME280;5356;43.526;26.534;2023-11-21T06:00:48;98923.78;;;4.95;100.00
10618;BME280;5356;43.526;26.534;2023-11-21T06:03:13;98920.41;;;5.01;100.00
10618;BME280;5356;43.526;26.534;2023-11-21T06:05:39;98918.25;;;5.11;100.00
10618;BME280;5356;43.526;26.534;2023-11-21T06:08:04;98917.69;;;5.16;100.00
10618;BME280;5356;43.526;26.534;2023-11-21T06:10:31;98924.41;;;5.18;100.00
10618;BME280;5356;43.526;26.534;2023-11-21T06:12:57;98925.25;;;5.26;100.00
10618;BME280;5356;43.526;26.534;2023-11-21T06:15:23;98934.06;;;5.33;100.00
10618;BME280;5356;43.526;26.534;2023-11-21T06:17:49;98926.59;;;5.43;100.00
10618;BME280;5356;43.526;26.534;2023-11-21T06:20:18;98929.91;;;5.52;100.00
10618;BME280;5356;43.526;26.534;2023-11-21T06:22:46;98927.72;;;5.55;100.00
10618;BME280;5356;43.526;26.534;2023-11-21T06:25:13;98939.13;;;5.62;100.00
10618;BME280;5356;43.526;26.534;2023-11-21T06:27:43;98937.69;;;5.60;100.00
10618;BME280;5356;43.526;26.534;2023-11-21T06:30:10;98930.44;;;5.69;100.00
10618;BME280;5356;43.526;26.534;2023-11-21T06:32:38;98937.34;;;5.70;100.00
10618;BME280;5356;43.526;26.534;2023-11-21T06:35:05;98936.81;;;5.81;100.00
10618;BME280;5356;43.526;26.534;2023-11-21T06:37:31;98943.16;;;5.87;100.00
10618;BME280;5356;43.526;26.534;2023-11-21T06:39:57;98951.25;;;5.85;100.00
10618;BME280;5356;43.526;26.534;2023-11-21T06:42:24;98951.38;;;5.98;100.00
10618;BME280;5356;43.526;26.534;2023-11-21T06:44:50;98947.97;;;6.11;100.00
10618;BME280;5356;43.526;26.534;2023-11-21T06:47:19;98940.06;;;6.18;100.00
10618;BME280;5356;43.526;26.534;2023-11-21T06:49:52;98938.50;;;6.30;100.00
10618;BME280;5356;43.526;26.534;2023-11-21T06:52:18;98938.50;;;6.30;100.00
10618;BME280;5356;43.526;26.534;2023-11-21T06:54:45;98933.41;;;6.35;100.00
10618;BME280;5356;43.526;26.534;2023-11-21T06:57:11;98936.88;;;6.42;100.00
10618;BME280;5356;43.526;26.534;2023-11-21T06:59:37;98945.91;;;6.55;100.00
10618;BME280;5356;43.526;26.534;2023-11-21T07:02:04;98933.09;;;6.65;100.00
10618;BME280;5356;43.526;26.534;2023-11-21T07:04:32;98933.72;;;6.73;100.00
10618;BME280;5356;43.526;26.534;2023-11-21T07:06:58;98930.44;;;6.65;100.00
10618;BME280;5356;43.526;26.534;2023-11-21T07:09:23;98932.09;;;6.66;100.00
10618;BME280;5356;43.526;26.534;2023-11-21T07:11:49;98936.38;;;6.80;100.00
10618;BME280;5356;43.526;26.534;2023-11-21T07:14:15;98939.84;;;6.87;100.00
10618;BME280;5356;43.526;26.534;2023-11-21T07:16:42;98938.00;;;6.88;100.00
10618;BME280;5356;43.526;26.534;2023-11-21T07:19:08;98933.34;;;6.77;100.00
10618;BME280;5356;43.526;26.534;2023-11-21T07:21:35;98919.91;;;6.91;100.00
10618;BME280;5356;43.526;26.534;2023-11-21T07:24:02;98924.78;;;7.01;100.00
10618;BME280;5356;43.526;26.534;2023-11-21T07:26:28;98926.00;;;6.98;100.00
10618;BME280;5356;43.526;26.534;2023-11-21T07:28:54;98916.66;;;7.09;100.00
10618;BME280;5356;43.526;26.534;2023-11-21T07:31:19;98921.94;;;7.16;100.00
10618;BME280;5356;43.526;26.534;2023-11-21T07:33:46;98912.56;;;7.20;100.00
10618;BME280;5356;43.526;26.534;2023-11-21T07:36:15;98917.44;;;7.30;100.00
10618;BME280;5356;43.526;26.534;2023-11-21T07:38:41;98919.28;;;7.36;100.00
10618;BME280;5356;43.526;26.534;2023-11-21T07:41:07;98925.19;;;7.38;100.00
10618;BME280;5356;43.526;26.534;2023-11-21T07:43:35;98916.44;;;7.37;100.00
10618;BME280;5356;43.526;26.534;2023-11-21T07:46:01;98913.78;;;7.51;100.00
10618;BME280;5356;43.526;26.534;2023-11-21T07:48:29;98920.69;;;7.58;100.00
10618;BME280;5356;43.526;26.534;2023-11-21T07:50:55;98918.63;;;7.67;100.00
10618;BME280;5356;43.526;26.534;2023-11-21T07:53:20;98913.50;;;7.79;100.00
10618;BME280;5356;43.526;26.534;2023-11-21T07:55:47;98914.53;;;7.84;100.00
10618;BME280;5356;43.526;26.534;2023-11-21T07:58:12;98913.25;;;7.94;100.00
10618;BME280;5356;43.526;26.534;2023-11-21T08:00:38;98909.56;;;8.01;100.00
10618;BME280;5356;43.526;26.534;2023-11-21T08:03:05;98921.56;;;8.10;100.00
10618;BME280;5356;43.526;26.534;2023-11-21T08:05:31;98918.88;;;8.17;100.00
10618;BME280;5356;43.526;26.534;2023-11-21T08:07:57;98916.78;;;8.32;100.00
10618;BME280;5356;43.526;26.534;2023-11-21T08:10:22;98918.19;;;8.42;100.00
10618;BME280;5356;43.526;26.534;2023-11-21T08:12:48;98924.06;;;8.50;100.00
10618;BME280;5356;43.526;26.534;2023-11-21T08:15:15;98922.34;;;8.63;100.00
10618;BME280;5356;43.526;26.534;2023-11-21T08:17:41;98918.03;;;8.68;100.00
10618;BME280;5356;43.526;26.534;2023-11-21T08:20:07;98917.94;;;8.82;100.00
10618;BME280;5356;43.526;26.534;2023-11-21T08:22:34;98911.16;;;8.92;100.00
10618;BME280;5356;43.526;26.534;2023-11-21T08:25:00;98903.13;;;8.99;100.00
10618;BME280;5356;43.526;26.534;2023-11-21T08:27:26;98907.28;;;9.13;100.00
10618;BME280;5356;43.526;26.534;2023-11-21T08:29:52;98907.19;;;9.27;100.00
10618;BME280;5356;43.526;26.534;2023-11-21T08:32:18;98901.16;;;9.38;100.00
10618;BME280;5356;43.526;26.534;2023-11-21T08:34:43;98909.06;;;9.44;100.00
10618;BME280;5356;43.526;26.534;2023-11-21T08:37:10;98913.91;;;9.54;100.00
10618;BME280;5356;43.526;26.534;2023-11-21T08:39:39;98904.44;;;9.58;100.00
10618;BME280;5356;43.526;26.534;2023-11-21T08:42:07;98906.22;;;9.64;100.00
10618;BME280;5356;43.526;26.534;2023-11-21T08:44:33;98897.41;;;9.64;100.00
10618;BME280;5356;43.526;26.534;2023-11-21T08:47:03;98888.25;;;9.78;100.00
10618;BME280;5356;43.526;26.534;2023-11-21T08:49:30;98902.38;;;9.97;100.00
10618;BME280;5356;43.526;26.534;2023-11-21T08:51:56;98896.06;;;10.10;100.00
10618;BME280;5356;43.526;26.534;2023-11-21T08:54:24;98886.25;;;10.10;100.00
10618;BME280;5356;43.526;26.534;2023-11-21T08:56:56;98883.72;;;10.16;100.00
10618;BME280;5356;43.526;26.534;2023-11-21T08:59:26;98884.81;;;10.26;100.00
10618;BME280;5356;43.526;26.534;2023-11-21T09:01:55;98879.34;;;10.40;100.00
10618;BME280;5356;43.526;26.534;2023-11-21T09:04:23;98879.94;;;10.42;100.00
10618;BME280;5356;43.526;26.534;2023-11-21T09:06:48;98875.13;;;10.50;100.00
10618;BME280;5356;43.526;26.534;2023-11-21T09:09:14;98869.44;;;10.59;100.00
10618;BME280;5356;43.526;26.534;2023-11-21T09:11:40;98867.50;;;10.66;100.00
10618;BME280;5356;43.526;26.534;2023-11-21T09:14:08;98863.25;;;10.76;100.00
10618;BME280;5356;43.526;26.534;2023-11-21T09:16:41;98854.56;;;10.81;100.00
10618;BME280;5356;43.526;26.534;2023-11-21T09:19:08;98849.94;;;10.88;100.00
10618;BME280;5356;43.526;26.534;2023-11-21T09:21:37;98842.44;;;10.97;100.00
10618;BME280;5356;43.526;26.534;2023-11-21T09:24:03;98847.06;;;11.01;100.00
10618;BME280;5356;43.526;26.534;2023-11-21T09:26:29;98854.25;;;11.13;100.00
10618;BME280;5356;43.526;26.534;2023-11-21T09:28:57;98856.47;;;11.28;100.00
10618;BME280;5356;43.526;26.534;2023-11-21T09:31:23;98844.25;;;11.43;100.00
10618;BME280;5356;43.526;26.534;2023-11-21T09:33:52;98845.19;;;11.61;100.00
10618;BME280;5356;43.526;26.534;2023-11-21T09:36:31;98840.06;;;11.71;100.00
10618;BME280;5356;43.526;26.534;2023-11-21T09:39:20;98842.94;;;11.81;100.00
10618;BME280;5356;43.526;26.534;2023-11-21T09:42:23;98828.75;;;12.04;100.00
10618;BME280;5356;43.526;26.534;2023-11-21T09:45:02;98828.53;;;12.23;100.00
10618;BME280;5356;43.526;26.534;2023-11-21T09:50:23;98822.31;;;12.63;100.00
10618;BME280;5356;43.526;26.534;2023-11-21T09:52:58;98819.38;;;12.81;100.00
10618;BME280;5356;43.526;26.534;2023-11-21T09:55:54;98814.44;;;13.07;100.00
10618;BME280;5356;43.526;26.534;2023-11-21T09:58:30;98807.88;;;13.14;100.00
10618;BME280;5356;43.526;26.534;2023-11-21T10:00:58;98807.38;;;13.34;100.00
10618;BME280;5356;43.526;26.534;2023-11-21T10:03:25;98792.28;;;13.45;100.00
10618;BME280;5356;43.526;26.534;2023-11-21T10:06:02;98793.25;;;13.61;100.00
10618;BME280;5356;43.526;26.534;2023-11-21T10:08:38;98782.31;;;13.62;100.00
10618;BME280;5356;43.526;26.534;2023-11-21T10:11:08;98786.78;;;13.79;100.00
10618;BME280;5356;43.526;26.534;2023-11-21T10:13:39;98785.72;;;14.02;100.00
10618;BME280;5356;43.526;26.534;2023-11-21T10:16:07;98781.63;;;14.21;100.00
10618;BME280;5356;43.526;26.534;2023-11-21T10:18:43;98787.34;;;14.35;100.00
10618;BME280;5356;43.526;26.534;2023-11-21T10:21:11;98783.41;;;14.43;100.00
10618;BME280;5356;43.526;26.534;2023-11-21T10:23:36;98774.53;;;14.64;100.00
10618;BME280;5356;43.526;26.534;2023-11-21T10:26:04;98770.53;;;14.72;100.00
10618;BME280;5356;43.526;26.534;2023-11-21T10:28:29;98767.31;;;14.70;100.00
10618;BME280;5356;43.526;26.534;2023-11-21T10:30:55;98762.34;;;14.84;100.00
10618;BME280;5356;43.526;26.534;2023-11-21T10:33:39;98756.69;;;14.85;100.00
10618;BME280;5356;43.526;26.534;2023-11-21T10:36:05;98754.28;;;14.89;98.53
10618;BME280;5356;43.526;26.534;2023-11-21T10:38:33;98755.81;;;15.12;97.81
10618;BME280;5356;43.526;26.534;2023-11-21T10:41:11;98745.41;;;15.31;97.96
10618;BME280;5356;43.526;26.534;2023-11-21T10:43:40;98750.88;;;15.46;97.55
10618;BME280;5356;43.526;26.534;2023-11-21T10:46:06;98746.31;;;15.52;97.69
10618;BME280;5356;43.526;26.534;2023-11-21T10:48:32;98741.81;;;15.67;97.79
10618;BME280;5356;43.526;26.534;2023-11-21T10:51:06;98736.75;;;15.71;95.84
10618;BME280;5356;43.526;26.534;2023-11-21T10:53:33;98737.56;;;15.71;94.56
10618;BME280;5356;43.526;26.534;2023-11-21T10:56:06;98730.31;;;15.82;93.72
10618;BME280;5356;43.526;26.534;2023-11-21T10:58:35;98727.13;;;15.96;94.35
10618;BME280;5356;43.526;26.534;2023-11-21T11:01:02;98730.09;;;15.99;92.98
10618;BME280;5356;43.526;26.534;2023-11-21T11:03:31;98732.53;;;16.16;93.39
10618;BME280;5356;43.526;26.534;2023-11-21T11:06:00;98724.50;;;16.11;91.42
10618;BME280;5356;43.526;26.534;2023-11-21T11:08:26;98733.88;;;16.19;90.33
10618;BME280;5356;43.526;26.534;2023-11-21T11:10:52;98724.75;;;16.20;89.00
10618;BME280;5356;43.526;26.534;2023-11-21T11:13:18;98733.09;;;16.28;89.26
10618;BME280;5356;43.526;26.534;2023-11-21T11:15:47;98720.72;;;16.17;87.51
10618;BME280;5356;43.526;26.534;2023-11-21T11:18:16;98713.47;;;16.17;88.44
10618;BME280;5356;43.526;26.534;2023-11-21T11:20:43;98701.38;;;16.25;89.25
10618;BME280;5356;43.526;26.534;2023-11-21T11:23:55;98700.84;;;16.23;86.29
10618;BME280;5356;43.526;26.534;2023-11-21T11:29:29;98699.78;;;16.45;86.96
10618;BME280;5356;43.526;26.534;2023-11-21T11:35:14;98700.28;;;16.57;85.88
10618;BME280;5356;43.526;26.534;2023-11-21T11:37:43;98694.38;;;16.60;84.85
10618;BME280;5356;43.526;26.534;2023-11-21T11:40:11;98694.66;;;16.48;85.53
10618;BME280;5356;43.526;26.534;2023-11-21T11:42:37;98693.84;;;16.43;86.33
10618;BME280;5356;43.526;26.534;2023-11-21T11:45:17;98696.53;;;16.37;86.58
10618;BME280;5356;43.526;26.534;2023-11-21T11:47:43;98698.13;;;16.38;86.81
10618;BME280;5356;43.526;26.534;2023-11-21T11:50:11;98707.81;;;16.34;87.09
10618;BME280;5356;43.526;26.534;2023-11-21T11:52:48;98697.06;;;16.50;86.83
10618;BME280;5356;43.526;26.534;2023-11-21T11:55:17;98700.84;;;16.59;87.36
10618;BME280;5356;43.526;26.534;2023-11-21T11:57:45;98695.97;;;16.66;86.62
10618;BME280;5356;43.526;26.534;2023-11-21T12:00:14;98700.81;;;16.79;85.82
10618;BME280;5356;43.526;26.534;2023-11-21T12:02:47;98695.41;;;16.90;85.32
10618;BME280;5356;43.526;26.534;2023-11-21T12:05:14;98685.16;;;17.02;85.13
10618;BME280;5356;43.526;26.534;2023-11-21T12:10:20;98676.00;;;16.93;83.05
10618;BME280;5356;43.526;26.534;2023-11-21T12:12:50;98677.09;;;16.92;82.78
10618;BME280;5356;43.526;26.534;2023-11-21T12:15:18;98665.31;;;16.82;82.21
10618;BME280;5356;43.526;26.534;2023-11-21T12:17:45;98664.50;;;16.77;82.34
10618;BME280;5356;43.526;26.534;2023-11-21T12:20:15;98655.88;;;16.70;81.82
10618;BME280;5356;43.526;26.534;2023-11-21T12:22:46;98655.63;;;16.56;81.61
10618;BME280;5356;43.526;26.534;2023-11-21T12:25:18;98651.31;;;16.80;82.76
10618;BME280;5356;43.526;26.534;2023-11-21T12:27:52;98654.53;;;16.77;81.32
10618;BME280;5356;43.526;26.534;2023-11-21T12:30:36;98649.94;;;16.93;81.33
10618;BME280;5356;43.526;26.534;2023-11-21T12:33:04;98647.25;;;16.93;81.91
10618;BME280;5356;43.526;26.534;2023-11-21T12:35:33;98641.34;;;16.86;81.46
10618;BME280;5356;43.526;26.534;2023-11-21T12:38:03;98637.88;;;16.60;80.56
10618;BME280;5356;43.526;26.534;2023-11-21T12:40:30;98635.22;;;16.55;81.17
10618;BME280;5356;43.526;26.534;2023-11-21T12:42:57;98631.19;;;16.47;81.26
10618;BME280;5356;43.526;26.534;2023-11-21T12:45:27;98632.25;;;16.51;81.56
10618;BME280;5356;43.526;26.534;2023-11-21T12:48:01;98625.28;;;16.50;81.74
10618;BME280;5356;43.526;26.534;2023-11-21T12:50:30;98629.81;;;16.55;81.96
10618;BME280;5356;43.526;26.534;2023-11-21T12:53:03;98632.22;;;16.61;82.64
10618;BME280;5356;43.526;26.534;2023-11-21T12:55:33;98627.94;;;16.66;82.59
10618;BME280;5356;43.526;26.534;2023-11-21T12:58:03;98623.66;;;16.59;83.15
10618;BME280;5356;43.526;26.534;2023-11-21T13:03:05;98629.31;;;16.43;83.61
10618;BME280;5356;43.526;26.534;2023-11-21T13:05:35;98618.56;;;16.37;83.41
10618;BME280;5356;43.526;26.534;2023-11-21T13:08:05;98615.38;;;16.25;83.55
10618;BME280;5356;43.526;26.534;2023-11-21T13:10:34;98612.69;;;16.20;83.73
10618;BME280;5356;43.526;26.534;2023-11-21T13:13:04;98604.38;;;16.06;83.84
10618;BME280;5356;43.526;26.534;2023-11-21T13:15:40;98598.19;;;15.90;83.38
10618;BME280;5356;43.526;26.534;2023-11-21T13:18:08;98595.50;;;15.90;82.55